sensor_id;sensor_type;location;lat;lon;timestamp;pressure;altitude;pressure_sealevel;temperature;humidity
51287;BME280;37364;46.974;18.916;2023-03-11T00:01:06;152575.03;;;8.84;100.00
51287;BME280;37364;46.974;18.916;2023-03-11T00:03:37;152582.81;;;8.87;100.00
51287;BME280;37364;46.974;18.916;2023-03-11T00:06:14;152578.94;;;8.85;100.00
51287;BME280;37364;46.974;18.916;2023-03-11T00:08:44;152595.78;;;8.92;100.00
51287;BME280;37364;46.974;18.916;2023-03-11T00:11:14;152575.03;;;8.84;100.00
51287;BME280;37364;46.974;18.916;2023-03-11T00:13:47;152550.47;;;8.74;100.00
51287;BME280;37364;46.974;18.916;2023-03-11T00:16:18;152500.06;;;8.54;100.00
51287;BME280;37364;46.974;18.916;2023-03-11T00:18:49;152503.94;;;8.56;100.00
51287;BME280;37364;46.974;18.916;2023-03-11T00:21:23;152509.13;;;8.58;100.00
51287;BME280;37364;46.974;18.916;2023-03-11T00:23:53;152498.78;;;8.54;100.00
51287;BME280;37364;46.974;18.916;2023-03-11T00:26:28;152492.34;;;8.51;100.00
51287;BME280;37364;46.974;18.916;2023-03-11T00:28:58;152503.94;;;8.56;100.00
51287;BME280;37364;46.974;18.916;2023-03-11T00:31:29;152491.00;;;8.50;100.00
51287;BME280;37364;46.974;18.916;2023-03-11T00:34:01;152474.22;;;8.44;100.00
51287;BME280;37364;46.974;18.916;2023-03-11T00:36:38;152467.78;;;8.41;100.00
51287;BME280;37364;46.974;18.916;2023-03-11T00:39:13;152441.81;;;8.31;100.00
51287;BME280;37364;46.974;18.916;2023-03-11T00:41:44;152440.56;;;8.30;100.00
51287;BME280;37364;46.974;18.916;2023-03-11T00:44:14;152449.59;;;8.34;100.00
51287;BME280;37364;46.974;18.916;2023-03-11T00:46:45;152450.88;;;8.35;100.00
51287;BME280;37364;46.974;18.916;2023-03-11T00:49:17;152445.72;;;8.32;100.00
51287;BME280;37364;46.974;18.916;2023-03-11T00:51:51;152423.75;;;8.24;100.00
51287;BME280;37364;46.974;18.916;2023-03-11T00:54:21;152395.31;;;8.12;100.00
51287;BME280;37364;46.974;18.916;2023-03-11T00:56:51;152375.94;;;8.05;100.00
51287;BME280;37364;46.974;18.916;2023-03-11T00:59:25;152372.03;;;8.03;100.00
51287;BME280;37364;46.974;18.916;2023-03-11T01:01:57;152356.53;;;7.97;100.00
51287;BME280;37364;46.974;18.916;2023-03-11T01:04:32;152321.66;;;7.83;100.00
51287;BME280;37364;46.974;18.916;2023-03-11T01:07:13;152335.88;;;7.89;100.00
51287;BME280;37364;46.974;18.916;2023-03-11T01:09:43;152299.72;;;7.75;100.00
51287;BME280;37364;46.974;18.916;2023-03-11T01:12:15;152315.22;;;7.81;100.00
51287;BME280;37364;46.974;18.916;2023-03-11T01:14:47;152298.38;;;7.74;100.00
51287;BME280;37364;46.974;18.916;2023-03-11T01:17:20;152273.84;;;7.64;100.00
51287;BME280;37364;46.974;18.916;2023-03-11T01:19:51;152262.22;;;7.60;100.00
51287;BME280;37364;46.974;18.916;2023-03-11T01:22:30;152245.44;;;7.53;100.00
51287;BME280;37364;46.974;18.916;2023-03-11T01:25:01;152242.84;;;7.52;100.00
51287;BME280;37364;46.974;18.916;2023-03-11T01:27:33;152237.69;;;7.50;100.00
51287;BME280;37364;46.974;18.916;2023-03-11T01:30:04;152215.75;;;7.41;100.00
51287;BME280;37364;46.974;18.916;2023-03-11T01:32:35;152193.75;;;7.32;100.00
51287;BME280;37364;46.974;18.916;2023-03-11T01:35:06;152160.16;;;7.19;100.00
51287;BME280;37364;46.974;18.916;2023-03-11T01:37:41;152192.47;;;7.32;100.00
51287;BME280;37364;46.974;18.916;2023-03-11T01:40:25;152130.47;;;7.07;100.00
51287;BME280;37364;46.974;18.916;2023-03-11T01:43:04;152161.50;;;7.20;100.00
51287;BME280;37364;46.974;18.916;2023-03-11T01:45:40;152182.16;;;7.28;100.00
51287;BME280;37364;46.974;18.916;2023-03-11T01:48:11;152152.44;;;7.16;100.00
51287;BME280;37364;46.974;18.916;2023-03-11T01:50:45;152117.56;;;7.02;100.00
51287;BME280;37364;46.974;18.916;2023-03-11T01:53:26;152131.78;;;7.08;100.00
51287;BME280;37364;46.974;18.916;2023-03-11T01:56:01;152112.41;;;7.00;100.00
51287;BME280;37364;46.974;18.916;2023-03-11T01:58:38;152109.81;;;6.99;100.00
51287;BME280;37364;46.974;18.916;2023-03-11T02:01:12;152139.50;;;7.11;100.00
51287;BME280;37364;46.974;18.916;2023-03-11T02:03:45;152127.91;;;7.06;100.00
51287;BME280;37364;46.974;18.916;2023-03-11T02:06:20;152071.06;;;6.84;100.00
51287;BME280;37364;46.974;18.916;2023-03-11T02:09:00;152068.50;;;6.83;100.00
51287;BME280;37364;46.974;18.916;2023-03-11T02:11:35;152114.97;;;7.01;100.00
51287;BME280;37364;46.974;18.916;2023-03-11T02:14:08;152102.09;;;6.96;100.00
51287;BME280;37364;46.974;18.916;2023-03-11T02:16:38;152086.59;;;6.90;100.00
51287;BME280;37364;46.974;18.916;2023-03-11T02:19:17;152081.38;;;6.88;100.00
51287;BME280;37364;46.974;18.916;2023-03-11T02:21:51;152121.47;;;7.04;100.00
51287;BME280;37364;46.974;18.916;2023-03-11T02:24:33;152084.00;;;6.89;100.00
51287;BME280;37364;46.974;18.916;2023-03-11T02:27:15;152085.28;;;6.89;100.00
51287;BME280;37364;46.974;18.916;2023-03-11T02:29:49;152102.09;;;6.96;100.00
51287;BME280;37364;46.974;18.916;2023-03-11T02:32:21;152125.28;;;7.05;100.00
51287;BME280;37364;46.974;18.916;2023-03-11T02:34:52;152081.38;;;6.88;100.00
51287;BME280;37364;46.974;18.916;2023-03-11T02:37:22;152116.28;;;7.02;100.00
51287;BME280;37364;46.974;18.916;2023-03-11T02:40:32;152118.84;;;7.03;100.00
51287;BME280;37364;46.974;18.916;2023-03-11T02:43:09;152107.25;;;6.98;100.00
51287;BME280;37364;46.974;18.916;2023-03-11T02:45:42;152120.13;;;7.03;100.00
51287;BME280;37364;46.974;18.916;2023-03-11T02:48:15;152112.41;;;7.00;100.00
51287;BME280;37364;46.974;18.916;2023-03-11T02:50:45;152113.69;;;7.01;100.00
51287;BME280;37364;46.974;18.916;2023-03-11T02:53:18;152111.09;;;7.00;100.00
51287;BME280;37364;46.974;18.916;2023-03-11T02:55:49;152109.81;;;6.99;100.00
51287;BME280;37364;46.974;18.916;2023-03-11T02:58:22;152138.22;;;7.10;100.00
51287;BME280;37364;46.974;18.916;2023-03-11T03:00:52;152153.72;;;7.17;100.00
51287;BME280;37364;46.974;18.916;2023-03-11T03:03:23;152180.88;;;7.27;100.00
51287;BME280;37364;46.974;18.916;2023-03-11T03:05:53;152189.88;;;7.31;100.00
51287;BME280;37364;46.974;18.916;2023-03-11T03:08:23;152180.88;;;7.27;100.00
51287;BME280;37364;46.974;18.916;2023-03-11T03:10:53;152197.63;;;7.34;100.00
51287;BME280;37364;46.974;18.916;2023-03-11T03:13:28;152272.56;;;7.64;100.00
51287;BME280;37364;46.974;18.916;2023-03-11T03:16:01;152280.31;;;7.67;100.00
51287;BME280;37364;46.974;18.916;2023-03-11T03:18:32;152304.88;;;7.77;100.00
51287;BME280;37364;46.974;18.916;2023-03-11T03:21:02;152307.44;;;7.78;100.00
51287;BME280;37364;46.974;18.916;2023-03-11T03:23:33;152304.88;;;7.77;100.00
51287;BME280;37364;46.974;18.916;2023-03-11T03:26:04;152302.28;;;7.76;100.00
51287;BME280;37364;46.974;18.916;2023-03-11T03:28:39;152335.88;;;7.89;100.00
51287;BME280;37364;46.974;18.916;2023-03-11T03:31:10;152357.81;;;7.98;100.00
51287;BME280;37364;46.974;18.916;2023-03-11T03:33:42;152375.94;;;8.05;100.00
51287;BME280;37364;46.974;18.916;2023-03-11T03:36:14;152409.53;;;8.18;100.00
51287;BME280;37364;46.974;18.916;2023-03-11T03:38:54;152417.31;;;8.21;100.00
51287;BME280;37364;46.974;18.916;2023-03-11T03:41:29;152394.03;;;8.12;100.00
51287;BME280;37364;46.974;18.916;2023-03-11T03:44:04;152386.25;;;8.09;100.00
51287;BME280;37364;46.974;18.916;2023-03-11T03:46:35;152347.50;;;7.93;100.00
51287;BME280;37364;46.974;18.916;2023-03-11T03:49:07;152348.81;;;7.94;100.00
51287;BME280;37364;46.974;18.916;2023-03-11T03:51:38;152363.03;;;8.00;100.00
51287;BME280;37364;46.974;18.916;2023-03-11T03:54:16;152330.72;;;7.87;100.00
51287;BME280;37364;46.974;18.916;2023-03-11T03:56:46;152304.88;;;7.77;100.00
51287;BME280;37364;46.974;18.916;2023-03-11T03:59:19;152303.56;;;7.76;100.00
51287;BME280;37364;46.974;18.916;2023-03-11T04:01:56;152257.06;;;7.58;100.00
51287;BME280;37364;46.974;18.916;2023-03-11T04:04:29;152229.94;;;7.47;100.00
51287;BME280;37364;46.974;18.916;2023-03-11T04:06:59;152202.81;;;7.36;100.00
51287;BME280;37364;46.974;18.916;2023-03-11T04:09:29;152236.41;;;7.49;100.00
51287;BME280;37364;46.974;18.916;2023-03-11T04:12:00;152198.91;;;7.35;100.00
51287;BME280;37364;46.974;18.916;2023-03-11T04:14:35;152187.31;;;7.30;100.00
51287;BME280;37364;46.974;18.916;2023-03-11T04:17:06;152165.31;;;7.21;100.00
51287;BME280;37364;46.974;18.916;2023-03-11T04:19:36;152130.47;;;7.07;100.00
51287;BME280;37364;46.974;18.916;2023-03-11T04:22:07;152131.78;;;7.08;100.00
51287;BME280;37364;46.974;18.916;2023-03-11T04:24:38;152142.09;;;7.12;100.00
51287;BME280;37364;46.974;18.916;2023-03-11T04:27:08;152118.84;;;7.03;100.00
51287;BME280;37364;46.974;18.916;2023-03-11T04:29:42;152099.47;;;6.95;100.00
51287;BME280;37364;46.974;18.916;2023-03-11T04:32:12;152073.66;;;6.85;100.00
51287;BME280;37364;46.974;18.916;2023-03-11T04:34:44;152047.84;;;6.75;100.00
51287;BME280;37364;46.974;18.916;2023-03-11T04:37:15;152067.22;;;6.82;100.00
51287;BME280;37364;46.974;18.916;2023-03-11T04:39:50;152073.66;;;6.85;100.00
51287;BME280;37364;46.974;18.916;2023-03-11T04:42:21;152009.13;;;6.59;100.00
51287;BME280;37364;46.974;18.916;2023-03-11T04:44:55;151988.47;;;6.51;100.00
51287;BME280;37364;46.974;18.916;2023-03-11T04:47:29;151967.78;;;6.43;100.00
51287;BME280;37364;46.974;18.916;2023-03-11T04:49:59;152018.16;;;6.63;100.00
51287;BME280;37364;46.974;18.916;2023-03-11T04:52:36;152029.75;;;6.67;100.00
51287;BME280;37364;46.974;18.916;2023-03-11T04:55:09;152046.53;;;6.74;100.00
51287;BME280;37364;46.974;18.916;2023-03-11T04:57:43;152040.09;;;6.71;100.00
51287;BME280;37364;46.974;18.916;2023-03-11T05:00:19;152053.00;;;6.77;100.00
51287;BME280;37364;46.974;18.916;2023-03-11T05:03:02;152037.53;;;6.70;100.00
51287;BME280;37364;46.974;18.916;2023-03-11T05:05:35;152058.19;;;6.79;100.00
51287;BME280;37364;46.974;18.916;2023-03-11T05:08:06;152067.22;;;6.82;98.38
51287;BME280;37364;46.974;18.916;2023-03-11T05:10:38;152072.38;;;6.84;94.89
51287;BME280;37364;46.974;18.916;2023-03-11T05:13:09;152029.75;;;6.67;98.87
51287;BME280;37364;46.974;18.916;2023-03-11T05:15:43;152022.00;;;6.64;100.00
51287;BME280;37364;46.974;18.916;2023-03-11T05:18:19;152014.28;;;6.61;100.00
51287;BME280;37364;46.974;18.916;2023-03-11T05:20:52;152034.91;;;6.69;86.08
51287;BME280;37364;46.974;18.916;2023-03-11T05:23:27;152020.72;;;6.64;86.61
51287;BME280;37364;46.974;18.916;2023-03-11T05:25:58;152000.06;;;6.56;82.51
51287;BME280;37364;46.974;18.916;2023-03-11T05:28:30;151967.78;;;6.43;82.03
51287;BME280;37364;46.974;18.916;2023-03-11T05:31:12;151943.25;;;6.33;85.59
51287;BME280;37364;46.974;18.916;2023-03-11T05:33:44;151920.06;;;6.24;87.48
51287;BME280;37364;46.974;18.916;2023-03-11T05:36:15;151916.16;;;6.22;85.42
51287;BME280;37364;46.974;18.916;2023-03-11T05:38:46;151909.72;;;6.20;79.43
51287;BME280;37364;46.974;18.916;2023-03-11T05:41:17;151874.88;;;6.06;82.57
51287;BME280;37364;46.974;18.916;2023-03-11T05:43:48;151858.09;;;5.99;82.27
51287;BME280;37364;46.974;18.916;2023-03-11T05:46:22;151837.41;;;5.91;77.58
51287;BME280;37364;46.974;18.916;2023-03-11T05:48:55;151834.78;;;5.90;75.03
51287;BME280;37364;46.974;18.916;2023-03-11T05:51:27;151801.28;;;5.77;77.70
51287;BME280;37364;46.974;18.916;2023-03-11T05:53:57;151783.22;;;5.69;69.87
51287;BME280;37364;46.974;18.916;2023-03-11T05:56:36;151779.34;;;5.68;67.18
51287;BME280;37364;46.974;18.916;2023-03-11T05:59:09;151745.78;;;5.54;68.70
51287;BME280;37364;46.974;18.916;2023-03-11T06:01:46;151739.34;;;5.52;67.24
51287;BME280;37364;46.974;18.916;2023-03-11T06:04:17;151722.59;;;5.45;66.87
51287;BME280;37364;46.974;18.916;2023-03-11T06:06:48;151701.97;;;5.37;68.03
51287;BME280;37364;46.974;18.916;2023-03-11T06:09:22;151704.53;;;5.38;65.40
51287;BME280;37364;46.974;18.916;2023-03-11T06:11:53;151694.22;;;5.34;65.56
51287;BME280;37364;46.974;18.916;2023-03-11T06:14:28;151698.09;;;5.35;66.99
51287;BME280;37364;46.974;18.916;2023-03-11T06:17:03;151676.13;;;5.27;68.15
51287;BME280;37364;46.974;18.916;2023-03-11T06:19:33;151667.09;;;5.23;67.88
51287;BME280;37364;46.974;18.916;2023-03-11T06:22:07;151660.66;;;5.21;68.76
51287;BME280;37364;46.974;18.916;2023-03-11T06:24:38;151651.63;;;5.17;67.93
51287;BME280;37364;46.974;18.916;2023-03-11T06:27:10;151641.31;;;5.13;70.06
51287;BME280;37364;46.974;18.916;2023-03-11T06:29:41;151654.22;;;5.18;67.61
51287;BME280;37364;46.974;18.916;2023-03-11T06:32:17;151643.94;;;5.14;68.42
51287;BME280;37364;46.974;18.916;2023-03-11T06:34:51;151625.84;;;5.07;72.06
51287;BME280;37364;46.974;18.916;2023-03-11T06:37:22;151607.78;;;5.00;71.11
51287;BME280;37364;46.974;18.916;2023-03-11T06:39:55;151633.63;;;5.10;68.07
51287;BME280;37364;46.974;18.916;2023-03-11T06:42:25;151661.94;;;5.21;69.84
51287;BME280;37364;46.974;18.916;2023-03-11T06:44:58;151612.94;;;5.02;70.20
51287;BME280;37364;46.974;18.916;2023-03-11T06:47:31;151615.53;;;5.03;71.29
51287;BME280;37364;46.974;18.916;2023-03-11T06:50:02;151615.53;;;5.03;66.40
51287;BME280;37364;46.974;18.916;2023-03-11T06:52:35;151601.34;;;4.97;70.09
51287;BME280;37364;46.974;18.916;2023-03-11T06:55:07;151607.78;;;5.00;69.95
51287;BME280;37364;46.974;18.916;2023-03-11T06:57:40;151611.66;;;5.01;69.34
51287;BME280;37364;46.974;18.916;2023-03-11T07:00:13;151594.91;;;4.94;66.32
51287;BME280;37364;46.974;18.916;2023-03-11T07:02:51;151582.00;;;4.89;65.14
51287;BME280;37364;46.974;18.916;2023-03-11T07:05:23;151596.19;;;4.95;62.35
51287;BME280;37364;46.974;18.916;2023-03-11T07:07:59;151587.16;;;4.91;63.18
51287;BME280;37364;46.974;18.916;2023-03-11T07:10:30;151582.00;;;4.89;63.63
51287;BME280;37364;46.974;18.916;2023-03-11T07:13:01;151582.00;;;4.89;62.47
51287;BME280;37364;46.974;18.916;2023-03-11T07:15:32;151567.81;;;4.84;62.18
51287;BME280;37364;46.974;18.916;2023-03-11T07:18:05;151580.72;;;4.89;61.70
51287;BME280;37364;46.974;18.916;2023-03-11T07:20:36;151582.00;;;4.89;60.06
51287;BME280;37364;46.974;18.916;2023-03-11T07:23:06;151589.78;;;4.92;62.35
51287;BME280;37364;46.974;18.916;2023-03-11T07:25:36;151580.72;;;4.89;62.61
51287;BME280;37364;46.974;18.916;2023-03-11T07:28:06;151564.00;;;4.82;60.66
51287;BME280;37364;46.974;18.916;2023-03-11T07:30:37;151548.47;;;4.76;59.85
51287;BME280;37364;46.974;18.916;2023-03-11T07:33:13;151543.31;;;4.74;61.33
51287;BME280;37364;46.974;18.916;2023-03-11T07:35:44;151562.66;;;4.82;63.27
51287;BME280;37364;46.974;18.916;2023-03-11T07:38:16;151583.28;;;4.90;62.86
51287;BME280;37364;46.974;18.916;2023-03-11T07:40:46;151640.03;;;5.12;64.02
51287;BME280;37364;46.974;18.916;2023-03-11T07:43:28;151686.44;;;5.31;63.24
51287;BME280;37364;46.974;18.916;2023-03-11T07:46:03;151682.63;;;5.29;63.76
51287;BME280;37364;46.974;18.916;2023-03-11T07:48:37;151651.63;;;5.17;60.75
51287;BME280;37364;46.974;18.916;2023-03-11T07:51:12;151687.78;;;5.31;61.32
51287;BME280;37364;46.974;18.916;2023-03-11T07:53:43;151723.88;;;5.46;62.30
51287;BME280;37364;46.974;18.916;2023-03-11T07:56:15;151723.88;;;5.46;61.93
51287;BME280;37364;46.974;18.916;2023-03-11T07:58:46;151700.66;;;5.37;64.38
51287;BME280;37364;46.974;18.916;2023-03-11T08:01:19;151696.75;;;5.35;63.69
51287;BME280;37364;46.974;18.916;2023-03-11T08:03:53;151690.34;;;5.32;65.67
51287;BME280;37364;46.974;18.916;2023-03-11T08:06:27;151687.78;;;5.31;63.51
51287;BME280;37364;46.974;18.916;2023-03-11T08:09:00;151716.13;;;5.43;63.09
51287;BME280;37364;46.974;18.916;2023-03-11T08:11:31;151667.09;;;5.23;61.57
51287;BME280;37364;46.974;18.916;2023-03-11T08:14:02;151710.97;;;5.41;64.77
51287;BME280;37364;46.974;18.916;2023-03-11T08:16:33;151677.47;;;5.27;61.95
51287;BME280;37364;46.974;18.916;2023-03-11T08:19:06;151689.06;;;5.32;64.03
51287;BME280;37364;46.974;18.916;2023-03-11T08:21:36;151695.50;;;5.34;63.86
51287;BME280;37364;46.974;18.916;2023-03-11T08:24:08;151710.97;;;5.41;63.77
51287;BME280;37364;46.974;18.916;2023-03-11T08:26:39;151723.88;;;5.46;62.20
51287;BME280;37364;46.974;18.916;2023-03-11T08:29:10;151689.06;;;5.32;62.76
51287;BME280;37364;46.974;18.916;2023-03-11T08:31:40;151732.91;;;5.49;67.10
51287;BME280;37364;46.974;18.916;2023-03-11T08:34:14;151692.94;;;5.33;61.84
51287;BME280;37364;46.974;18.916;2023-03-11T08:36:47;151701.97;;;5.37;61.68
51287;BME280;37364;46.974;18.916;2023-03-11T08:39:18;151727.75;;;5.47;63.22
51287;BME280;37364;46.974;18.916;2023-03-11T08:41:50;151722.59;;;5.45;61.46
51287;BME280;37364;46.974;18.916;2023-03-11T08:44:20;151709.69;;;5.40;60.27
51287;BME280;37364;46.974;18.916;2023-03-11T08:46:51;151725.16;;;5.46;62.35
51287;BME280;37364;46.974;18.916;2023-03-11T08:49:24;151758.69;;;5.60;62.38
51287;BME280;37364;46.974;18.916;2023-03-11T08:51:55;151770.28;;;5.64;61.96
51287;BME280;37364;46.974;18.916;2023-03-11T08:54:25;151824.47;;;5.86;60.96
51287;BME280;37364;46.974;18.916;2023-03-11T08:56:55;151992.31;;;6.52;61.74
51287;BME280;37364;46.974;18.916;2023-03-11T08:59:29;152005.22;;;6.58;61.25
51287;BME280;37364;46.974;18.916;2023-03-11T09:02:01;152043.97;;;6.73;58.77
51287;BME280;37364;46.974;18.916;2023-03-11T09:04:34;151998.78;;;6.55;58.99
51287;BME280;37364;46.974;18.916;2023-03-11T09:07:04;151889.03;;;6.11;57.90
51287;BME280;37364;46.974;18.916;2023-03-11T09:09:35;151829.63;;;5.88;57.20
51287;BME280;37364;46.974;18.916;2023-03-11T09:12:06;151816.75;;;5.83;58.66
51287;BME280;37364;46.974;18.916;2023-03-11T09:14:40;151815.50;;;5.82;58.28
51287;BME280;37364;46.974;18.916;2023-03-11T09:17:10;151769.00;;;5.64;58.00
51287;BME280;37364;46.974;18.916;2023-03-11T09:19:43;151794.81;;;5.74;58.38
51287;BME280;37364;46.974;18.916;2023-03-11T09:22:14;151926.50;;;6.26;59.68
51287;BME280;37364;46.974;18.916;2023-03-11T09:24:46;151984.59;;;6.49;56.78
51287;BME280;37364;46.974;18.916;2023-03-11T09:27:16;152135.63;;;7.09;57.51
51287;BME280;37364;46.974;18.916;2023-03-11T09:29:50;152232.50;;;7.48;57.33
51287;BME280;37364;46.974;18.916;2023-03-11T09:32:24;152054.28;;;6.77;55.71
51287;BME280;37364;46.974;18.916;2023-03-11T09:34:59;151940.69;;;6.32;55.25
51287;BME280;37364;46.974;18.916;2023-03-11T09:37:30;152041.38;;;6.72;56.79
51287;BME280;37364;46.974;18.916;2023-03-11T09:40:03;152068.50;;;6.83;55.15
51287;BME280;37364;46.974;18.916;2023-03-11T09:42:38;152071.06;;;6.84;53.82
51287;BME280;37364;46.974;18.916;2023-03-11T09:45:15;152054.28;;;6.77;52.96
51287;BME280;37364;46.974;18.916;2023-03-11T09:48:01;152091.75;;;6.92;53.94
51287;BME280;37364;46.974;18.916;2023-03-11T09:50:43;151978.16;;;6.47;53.59
51287;BME280;37364;46.974;18.916;2023-03-11T09:53:24;152055.56;;;6.78;54.36
51287;BME280;37364;46.974;18.916;2023-03-11T09:56:05;152089.16;;;6.91;52.92
51287;BME280;37364;46.974;18.916;2023-03-11T09:58:42;152014.28;;;6.61;53.67
51287;BME280;37364;46.974;18.916;2023-03-11T10:01:18;152107.25;;;6.98;54.72
51287;BME280;37364;46.974;18.916;2023-03-11T10:03:53;151998.78;;;6.55;53.05
51287;BME280;37364;46.974;18.916;2023-03-11T10:06:28;152041.38;;;6.72;53.86
51287;BME280;37364;46.974;18.916;2023-03-11T10:09:05;152108.53;;;6.99;53.53
51287;BME280;37364;46.974;18.916;2023-03-11T10:11:49;152125.28;;;7.05;53.22
51287;BME280;37364;46.974;18.916;2023-03-11T10:14:42;152139.50;;;7.11;54.15
51287;BME280;37364;46.974;18.916;2023-03-11T10:17:26;152202.81;;;7.36;52.99
51287;BME280;37364;46.974;18.916;2023-03-11T10:20:04;152222.19;;;7.44;53.60
51287;BME280;37364;46.974;18.916;2023-03-11T10:22:48;152182.16;;;7.28;52.50
51287;BME280;37364;46.974;18.916;2023-03-11T10:25:24;152229.94;;;7.47;53.42
51287;BME280;37364;46.974;18.916;2023-03-11T10:28:00;152249.28;;;7.55;52.29
51287;BME280;37364;46.974;18.916;2023-03-11T10:30:36;152317.75;;;7.82;54.14
51287;BME280;37364;46.974;18.916;2023-03-11T10:33:17;152321.66;;;7.83;52.26
51287;BME280;37364;46.974;18.916;2023-03-11T10:35:52;152344.94;;;7.92;51.92
51287;BME280;37364;46.974;18.916;2023-03-11T10:38:29;152286.78;;;7.69;52.85
51287;BME280;37364;46.974;18.916;2023-03-11T10:41:05;152368.22;;;8.02;53.37
51287;BME280;37364;46.974;18.916;2023-03-11T10:43:43;152418.59;;;8.22;53.30
51287;BME280;37364;46.974;18.916;2023-03-11T10:46:19;152325.53;;;7.85;50.61
51287;BME280;37364;46.974;18.916;2023-03-11T10:48:50;152319.09;;;7.82;52.66
51287;BME280;37364;46.974;18.916;2023-03-11T10:51:22;152399.22;;;8.14;51.85
51287;BME280;37364;46.974;18.916;2023-03-11T10:53:57;152394.03;;;8.12;51.94
51287;BME280;37364;46.974;18.916;2023-03-11T10:56:30;152360.44;;;7.99;50.21
51287;BME280;37364;46.974;18.916;2023-03-11T10:59:01;152397.94;;;8.14;50.25
51287;BME280;37364;46.974;18.916;2023-03-11T11:01:32;152413.44;;;8.20;49.87
51287;BME280;37364;46.974;18.916;2023-03-11T11:04:24;152403.09;;;8.16;49.92
51287;BME280;37364;46.974;18.916;2023-03-11T11:06:56;152406.94;;;8.17;49.51
51287;BME280;37364;46.974;18.916;2023-03-11T11:09:30;152485.84;;;8.48;50.96
51287;BME280;37364;46.974;18.916;2023-03-11T11:12:05;152488.44;;;8.49;50.95
51287;BME280;37364;46.974;18.916;2023-03-11T11:14:46;152503.94;;;8.56;49.80
51287;BME280;37364;46.974;18.916;2023-03-11T11:17:22;152527.25;;;8.65;49.51
51287;BME280;37364;46.974;18.916;2023-03-11T11:19:54;152635.84;;;9.08;50.74
51287;BME280;37364;46.974;18.916;2023-03-11T11:22:25;152603.50;;;8.95;49.32
51287;BME280;37364;46.974;18.916;2023-03-11T11:25:00;152444.44;;;8.32;47.51
51287;BME280;37364;46.974;18.916;2023-03-11T11:27:31;152524.63;;;8.64;50.48
51287;BME280;37364;46.974;18.916;2023-03-11T11:30:14;152484.56;;;8.48;48.91
51287;BME280;37364;46.974;18.916;2023-03-11T11:32:44;152339.75;;;7.90;47.11
51287;BME280;37364;46.974;18.916;2023-03-11T11:35:16;152357.81;;;7.98;48.72
51287;BME280;37364;46.974;18.916;2023-03-11T11:37:48;152359.16;;;7.98;49.37
51287;BME280;37364;46.974;18.916;2023-03-11T11:40:25;152395.31;;;8.12;48.89
51287;BME280;37364;46.974;18.916;2023-03-11T11:42:58;152427.66;;;8.25;49.46
51287;BME280;37364;46.974;18.916;2023-03-11T11:45:36;152408.25;;;8.18;48.95
51287;BME280;37364;46.974;18.916;2023-03-11T11:48:14;152270.00;;;7.63;49.26
51287;BME280;37364;46.974;18.916;2023-03-11T11:50:51;152295.81;;;7.73;50.00
51287;BME280;37364;46.974;18.916;2023-03-11T11:53:30;152200.25;;;7.35;48.76
51287;BME280;37364;46.974;18.916;2023-03-11T11:56:06;152284.22;;;7.68;51.35
51287;BME280;37364;46.974;18.916;2023-03-11T11:58:38;152338.47;;;7.90;49.50
51287;BME280;37364;46.974;18.916;2023-03-11T12:01:14;152332.00;;;7.87;49.52
51287;BME280;37364;46.974;18.916;2023-03-11T12:07:08;152302.28;;;7.76;50.00
51287;BME280;37364;46.974;18.916;2023-03-11T12:09:48;152306.16;;;7.77;49.58
51287;BME280;37364;46.974;18.916;2023-03-11T12:12:28;152255.78;;;7.57;51.56
51287;BME280;37364;46.974;18.916;2023-03-11T12:15:05;152270.00;;;7.63;51.42
51287;BME280;37364;46.974;18.916;2023-03-11T12:17:42;152174.38;;;7.25;50.50
51287;BME280;37364;46.974;18.916;2023-03-11T12:20:17;152085.28;;;6.89;48.06
51287;BME280;37364;46.974;18.916;2023-03-11T12:23:12;152043.97;;;6.73;48.81
51287;BME280;37364;46.974;18.916;2023-03-11T12:25:51;152047.84;;;6.75;48.50
51287;BME280;37364;46.974;18.916;2023-03-11T12:28:37;152022.00;;;6.64;48.17
51287;BME280;37364;46.974;18.916;2023-03-11T12:31:10;152007.84;;;6.59;48.55
51287;BME280;37364;46.974;18.916;2023-03-11T12:33:42;152024.59;;;6.65;50.64
51287;BME280;37364;46.974;18.916;2023-03-11T12:36:23;152019.44;;;6.63;50.00
51287;BME280;37364;46.974;18.916;2023-03-11T12:38:58;152016.84;;;6.62;50.42
51287;BME280;37364;46.974;18.916;2023-03-11T12:41:33;152068.50;;;6.83;51.21
51287;BME280;37364;46.974;18.916;2023-03-11T12:44:24;152074.94;;;6.85;50.97
51287;BME280;37364;46.974;18.916;2023-03-11T12:47:16;152078.81;;;6.87;50.64
51287;BME280;37364;46.974;18.916;2023-03-11T12:49:47;152121.47;;;7.04;52.72
51287;BME280;37364;46.974;18.916;2023-03-11T12:52:28;152164.03;;;7.21;50.84
51287;BME280;37364;46.974;18.916;2023-03-11T12:55:28;152290.66;;;7.71;50.88
51287;BME280;37364;46.974;18.916;2023-03-11T13:01:15;152360.44;;;7.99;49.68
51287;BME280;37364;46.974;18.916;2023-03-11T13:03:52;152414.72;;;8.20;49.34
51287;BME280;37364;46.974;18.916;2023-03-11T13:06:57;152381.09;;;8.07;50.92
51287;BME280;37364;46.974;18.916;2023-03-11T13:09:30;152227.34;;;7.46;50.45
51287;BME280;37364;46.974;18.916;2023-03-11T13:12:01;152231.22;;;7.47;51.48
51287;BME280;37364;46.974;18.916;2023-03-11T13:14:35;152281.59;;;7.67;50.98
51287;BME280;37364;46.974;18.916;2023-03-11T13:17:25;152348.81;;;7.94;50.83
51287;BME280;37364;46.974;18.916;2023-03-11T13:19:57;152381.09;;;8.07;50.42
51287;BME280;37364;46.974;18.916;2023-03-11T13:25:43;152237.69;;;7.50;50.63
51287;BME280;37364;46.974;18.916;2023-03-11T13:28:59;152095.59;;;6.93;50.93
51287;BME280;37364;46.974;18.916;2023-03-11T13:31:46;152131.78;;;7.08;50.19